sensor_id;sensor_type;location;lat;lon;timestamp;temperature;humidity
9666;DHT22;4871;52.004;5.924;2024-03-08T00:00:11;4.8;89.0
9666;DHT22;4871;52.004;5.924;2024-03-08T00:01:00;4.8;89.0
9666;DHT22;4871;52.004;5.924;2024-03-08T00:02:00;4.8;89.1
9666;DHT22;4871;52.004;5.924;2024-03-08T00:03:02;4.8;89.2
9666;DHT22;4871;52.004;5.924;2024-03-08T00:04:00;4.8;88.9
9666;DHT22;4871;52.004;5.924;2024-03-08T00:05:00;4.8;89.0
9666;DHT22;4871;52.004;5.924;2024-03-08T00:06:00;4.8;88.9
9666;DHT22;4871;52.004;5.924;2024-03-08T00:07:00;4.8;88.7
9666;DHT22;4871;52.004;5.924;2024-03-08T00:08:00;4.8;89.0
9666;DHT22;4871;52.004;5.924;2024-03-08T00:09:00;4.8;88.8
9666;DHT22;4871;52.004;5.924;2024-03-08T00:10:00;4.8;88.7
9666;DHT22;4871;52.004;5.924;2024-03-08T00:11:00;4.8;88.7
9666;DHT22;4871;52.004;5.924;2024-03-08T00:12:00;4.7;88.8
9666;DHT22;4871;52.004;5.924;2024-03-08T00:13:00;4.7;89.0
9666;DHT22;4871;52.004;5.924;2024-03-08T00:14:00;4.7;89.0
9666;DHT22;4871;52.004;5.924;2024-03-08T00:15:00;4.7;89.0
9666;DHT22;4871;52.004;5.924;2024-03-08T00:16:00;4.7;88.8
9666;DHT22;4871;52.004;5.924;2024-03-08T00:17:00;4.7;88.9
9666;DHT22;4871;52.004;5.924;2024-03-08T00:18:00;4.7;89.1
9666;DHT22;4871;52.004;5.924;2024-03-08T00:19:00;4.7;88.9
9666;DHT22;4871;52.004;5.924;2024-03-08T00:20:00;4.7;88.8
9666;DHT22;4871;52.004;5.924;2024-03-08T00:21:00;4.7;88.9
9666;DHT22;4871;52.004;5.924;2024-03-08T00:22:00;4.7;89.0
9666;DHT22;4871;52.004;5.924;2024-03-08T00:23:00;4.6;88.5
9666;DHT22;4871;52.004;5.924;2024-03-08T00:24:00;4.6;88.9
9666;DHT22;4871;52.004;5.924;2024-03-08T00:25:02;4.6;88.8
9666;DHT22;4871;52.004;5.924;2024-03-08T00:26:00;4.7;88.9
9666;DHT22;4871;52.004;5.924;2024-03-08T00:27:02;4.6;88.8
9666;DHT22;4871;52.004;5.924;2024-03-08T00:28:00;4.6;89.0
9666;DHT22;4871;52.004;5.924;2024-03-08T00:29:00;4.6;88.7
9666;DHT22;4871;52.004;5.924;2024-03-08T00:30:01;4.6;88.9
9666;DHT22;4871;52.004;5.924;2024-03-08T00:31:00;4.6;88.7
9666;DHT22;4871;52.004;5.924;2024-03-08T00:32:01;4.6;88.9
9666;DHT22;4871;52.004;5.924;2024-03-08T00:33:00;4.5;88.8
9666;DHT22;4871;52.004;5.924;2024-03-08T00:34:00;4.6;88.9
9666;DHT22;4871;52.004;5.924;2024-03-08T00:35:00;4.6;88.8
9666;DHT22;4871;52.004;5.924;2024-03-08T00:36:00;4.5;88.7
9666;DHT22;4871;52.004;5.924;2024-03-08T00:37:00;4.5;88.8
9666;DHT22;4871;52.004;5.924;2024-03-08T00:38:00;4.6;88.9
9666;DHT22;4871;52.004;5.924;2024-03-08T00:39:00;4.6;88.5
9666;DHT22;4871;52.004;5.924;2024-03-08T00:40:00;4.5;88.5
9666;DHT22;4871;52.004;5.924;2024-03-08T00:41:00;4.5;88.6
9666;DHT22;4871;52.004;5.924;2024-03-08T00:42:00;4.5;88.4
9666;DHT22;4871;52.004;5.924;2024-03-08T00:43:00;4.5;88.6
9666;DHT22;4871;52.004;5.924;2024-03-08T00:44:00;4.5;88.8
9666;DHT22;4871;52.004;5.924;2024-03-08T00:45:00;4.5;88.7
9666;DHT22;4871;52.004;5.924;2024-03-08T00:46:01;4.5;88.8
9666;DHT22;4871;52.004;5.924;2024-03-08T00:47:00;4.5;89.0
9666;DHT22;4871;52.004;5.924;2024-03-08T00:48:00;4.5;88.8
9666;DHT22;4871;52.004;5.924;2024-03-08T00:49:01;4.5;88.8
9666;DHT22;4871;52.004;5.924;2024-03-08T00:50:04;4.5;88.8
9666;DHT22;4871;52.004;5.924;2024-03-08T00:51:02;4.4;88.9
9666;DHT22;4871;52.004;5.924;2024-03-08T00:52:00;4.4;88.7
9666;DHT22;4871;52.004;5.924;2024-03-08T00:53:00;4.5;88.2
9666;DHT22;4871;52.004;5.924;2024-03-08T00:54:00;4.4;88.7
9666;DHT22;4871;52.004;5.924;2024-03-08T00:55:00;4.4;88.5
9666;DHT22;4871;52.004;5.924;2024-03-08T00:56:00;4.4;88.8
9666;DHT22;4871;52.004;5.924;2024-03-08T00:57:03;4.4;88.9
9666;DHT22;4871;52.004;5.924;2024-03-08T00:58:00;4.4;88.7
9666;DHT22;4871;52.004;5.924;2024-03-08T00:59:00;4.4;88.8
9666;DHT22;4871;52.004;5.924;2024-03-08T01:00:03;4.4;88.8
9666;DHT22;4871;52.004;5.924;2024-03-08T01:01:00;4.4;88.7
9666;DHT22;4871;52.004;5.924;2024-03-08T01:02:01;4.4;88.7
9666;DHT22;4871;52.004;5.924;2024-03-08T01:03:00;4.4;88.4
9666;DHT22;4871;52.004;5.924;2024-03-08T01:04:00;4.3;88.9
9666;DHT22;4871;52.004;5.924;2024-03-08T01:05:00;4.3;88.9
9666;DHT22;4871;52.004;5.924;2024-03-08T01:06:02;4.3;89.0
9666;DHT22;4871;52.004;5.924;2024-03-08T01:07:00;4.3;88.8
9666;DHT22;4871;52.004;5.924;2024-03-08T01:08:00;4.3;88.7
9666;DHT22;4871;52.004;5.924;2024-03-08T01:09:00;4.3;88.5
9666;DHT22;4871;52.004;5.924;2024-03-08T01:10:01;4.3;88.7
9666;DHT22;4871;52.004;5.924;2024-03-08T01:11:00;4.3;88.6
9666;DHT22;4871;52.004;5.924;2024-03-08T01:12:01;4.3;89.0
9666;DHT22;4871;52.004;5.924;2024-03-08T01:13:00;4.3;88.7
9666;DHT22;4871;52.004;5.924;2024-03-08T01:14:01;4.3;88.8
9666;DHT22;4871;52.004;5.924;2024-03-08T01:15:00;4.3;88.5
9666;DHT22;4871;52.004;5.924;2024-03-08T01:16:00;4.3;88.6
9666;DHT22;4871;52.004;5.924;2024-03-08T01:17:00;4.3;88.4
9666;DHT22;4871;52.004;5.924;2024-03-08T01:18:01;4.3;88.7
9666;DHT22;4871;52.004;5.924;2024-03-08T01:19:00;4.2;88.8
9666;DHT22;4871;52.004;5.924;2024-03-08T01:20:00;4.2;88.6
9666;DHT22;4871;52.004;5.924;2024-03-08T01:21:00;4.2;88.6
9666;DHT22;4871;52.004;5.924;2024-03-08T01:22:00;4.2;88.8
9666;DHT22;4871;52.004;5.924;2024-03-08T01:23:00;4.2;88.7
9666;DHT22;4871;52.004;5.924;2024-03-08T01:24:00;4.2;88.6
9666;DHT22;4871;52.004;5.924;2024-03-08T01:25:00;4.2;88.5
9666;DHT22;4871;52.004;5.924;2024-03-08T01:26:02;4.2;88.5
9666;DHT22;4871;52.004;5.924;2024-03-08T01:27:01;4.1;88.5
9666;DHT22;4871;52.004;5.924;2024-03-08T01:28:00;4.2;88.7
9666;DHT22;4871;52.004;5.924;2024-03-08T01:29:00;4.2;88.8
9666;DHT22;4871;52.004;5.924;2024-03-08T01:30:00;4.2;88.6
9666;DHT22;4871;52.004;5.924;2024-03-08T01:31:00;4.2;88.7
9666;DHT22;4871;52.004;5.924;2024-03-08T01:32:01;4.1;88.7
9666;DHT22;4871;52.004;5.924;2024-03-08T01:33:00;4.1;88.3
9666;DHT22;4871;52.004;5.924;2024-03-08T01:34:00;4.1;88.6
9666;DHT22;4871;52.004;5.924;2024-03-08T01:35:00;4.1;88.6
9666;DHT22;4871;52.004;5.924;2024-03-08T01:36:00;4.1;88.6
9666;DHT22;4871;52.004;5.924;2024-03-08T01:37:00;4.1;88.9
9666;DHT22;4871;52.004;5.924;2024-03-08T01:38:00;4.1;88.5
9666;DHT22;4871;52.004;5.924;2024-03-08T01:39:00;4.1;88.5
9666;DHT22;4871;52.004;5.924;2024-03-08T01:40:00;4.1;88.7
9666;DHT22;4871;52.004;5.924;2024-03-08T01:41:00;4.1;88.6
9666;DHT22;4871;52.004;5.924;2024-03-08T01:42:01;4.1;88.7
9666;DHT22;4871;52.004;5.924;2024-03-08T01:43:17;4.1;88.7
9666;DHT22;4871;52.004;5.924;2024-03-08T01:44:00;4.1;88.6
9666;DHT22;4871;52.004;5.924;2024-03-08T01:45:00;4.1;88.7
9666;DHT22;4871;52.004;5.924;2024-03-08T01:46:00;4.1;88.5
9666;DHT22;4871;52.004;5.924;2024-03-08T01:47:01;4.1;88.3
9666;DHT22;4871;52.004;5.924;2024-03-08T01:48:01;4.0;88.5
9666;DHT22;4871;52.004;5.924;2024-03-08T01:49:01;4.0;88.4
9666;DHT22;4871;52.004;5.924;2024-03-08T01:50:02;4.0;88.3
9666;DHT22;4871;52.004;5.924;2024-03-08T01:51:00;4.0;88.5
9666;DHT22;4871;52.004;5.924;2024-03-08T01:52:00;4.0;88.4
9666;DHT22;4871;52.004;5.924;2024-03-08T01:53:00;4.0;88.4
9666;DHT22;4871;52.004;5.924;2024-03-08T01:54:01;4.0;88.4
9666;DHT22;4871;52.004;5.924;2024-03-08T01:55:03;4.0;88.5
9666;DHT22;4871;52.004;5.924;2024-03-08T01:56:01;4.0;88.6
9666;DHT22;4871;52.004;5.924;2024-03-08T01:57:00;4.0;88.6
9666;DHT22;4871;52.004;5.924;2024-03-08T01:58:00;4.0;88.5
9666;DHT22;4871;52.004;5.924;2024-03-08T01:59:01;4.0;88.7
9666;DHT22;4871;52.004;5.924;2024-03-08T02:00:04;4.0;88.3
9666;DHT22;4871;52.004;5.924;2024-03-08T02:01:01;4.0;88.7
9666;DHT22;4871;52.004;5.924;2024-03-08T02:02:01;3.9;88.5
9666;DHT22;4871;52.004;5.924;2024-03-08T02:03:01;3.9;88.5
9666;DHT22;4871;52.004;5.924;2024-03-08T02:04:00;3.9;88.6
9666;DHT22;4871;52.004;5.924;2024-03-08T02:05:00;3.9;88.7
9666;DHT22;4871;52.004;5.924;2024-03-08T02:06:00;3.9;88.4
9666;DHT22;4871;52.004;5.924;2024-03-08T02:07:00;3.9;88.4
9666;DHT22;4871;52.004;5.924;2024-03-08T02:08:00;3.9;88.2
9666;DHT22;4871;52.004;5.924;2024-03-08T02:09:00;3.9;88.6
9666;DHT22;4871;52.004;5.924;2024-03-08T02:10:00;3.9;88.4
9666;DHT22;4871;52.004;5.924;2024-03-08T02:11:03;3.9;88.2
9666;DHT22;4871;52.004;5.924;2024-03-08T02:12:00;3.9;88.6
9666;DHT22;4871;52.004;5.924;2024-03-08T02:13:02;3.8;88.4
9666;DHT22;4871;52.004;5.924;2024-03-08T02:14:00;3.9;88.5
9666;DHT22;4871;52.004;5.924;2024-03-08T02:15:00;3.8;88.5
9666;DHT22;4871;52.004;5.924;2024-03-08T02:16:00;3.8;88.5
9666;DHT22;4871;52.004;5.924;2024-03-08T02:17:00;3.8;88.5
9666;DHT22;4871;52.004;5.924;2024-03-08T02:18:00;3.8;88.5
9666;DHT22;4871;52.004;5.924;2024-03-08T02:19:00;3.8;88.5
9666;DHT22;4871;52.004;5.924;2024-03-08T02:20:05;3.8;88.4
9666;DHT22;4871;52.004;5.924;2024-03-08T02:21:01;3.8;88.4
9666;DHT22;4871;52.004;5.924;2024-03-08T02:22:05;3.8;88.6
9666;DHT22;4871;52.004;5.924;2024-03-08T02:23:00;3.8;88.2
9666;DHT22;4871;52.004;5.924;2024-03-08T02:24:00;3.7;88.4
9666;DHT22;4871;52.004;5.924;2024-03-08T02:25:02;3.8;88.5
9666;DHT22;4871;52.004;5.924;2024-03-08T02:26:00;3.7;88.6
9666;DHT22;4871;52.004;5.924;2024-03-08T02:27:01;3.7;88.4
9666;DHT22;4871;52.004;5.924;2024-03-08T02:28:00;3.8;88.3
9666;DHT22;4871;52.004;5.924;2024-03-08T02:29:00;3.8;88.5
9666;DHT22;4871;52.004;5.924;2024-03-08T02:30:00;3.8;88.4
9666;DHT22;4871;52.004;5.924;2024-03-08T02:31:00;3.7;88.5
9666;DHT22;4871;52.004;5.924;2024-03-08T02:32:00;3.7;88.4
9666;DHT22;4871;52.004;5.924;2024-03-08T02:33:00;3.7;88.4
9666;DHT22;4871;52.004;5.924;2024-03-08T02:34:00;3.7;88.3
9666;DHT22;4871;52.004;5.924;2024-03-08T02:35:00;3.7;88.5
9666;DHT22;4871;52.004;5.924;2024-03-08T02:36:00;3.7;88.5
9666;DHT22;4871;52.004;5.924;2024-03-08T02:37:01;3.7;88.4
9666;DHT22;4871;52.004;5.924;2024-03-08T02:38:01;3.7;88.5
9666;DHT22;4871;52.004;5.924;2024-03-08T02:39:01;3.7;88.4
9666;DHT22;4871;52.004;5.924;2024-03-08T02:40:00;3.7;88.4
9666;DHT22;4871;52.004;5.924;2024-03-08T02:41:00;3.7;88.3
9666;DHT22;4871;52.004;5.924;2024-03-08T02:42:00;3.7;88.5
9666;DHT22;4871;52.004;5.924;2024-03-08T02:43:00;3.7;88.1
9666;DHT22;4871;52.004;5.924;2024-03-08T02:44:00;3.7;88.3
9666;DHT22;4871;52.004;5.924;2024-03-08T02:45:00;3.7;88.4
9666;DHT22;4871;52.004;5.924;2024-03-08T02:46:00;3.7;88.2
9666;DHT22;4871;52.004;5.924;2024-03-08T02:47:00;3.7;88.3
9666;DHT22;4871;52.004;5.924;2024-03-08T02:48:00;3.6;88.3
9666;DHT22;4871;52.004;5.924;2024-03-08T02:49:00;3.6;88.4
9666;DHT22;4871;52.004;5.924;2024-03-08T02:50:01;3.6;88.3
9666;DHT22;4871;52.004;5.924;2024-03-08T02:51:02;3.6;88.5
9666;DHT22;4871;52.004;5.924;2024-03-08T02:52:01;3.6;88.5
9666;DHT22;4871;52.004;5.924;2024-03-08T02:53:00;3.6;88.5
9666;DHT22;4871;52.004;5.924;2024-03-08T02:54:00;3.6;88.5
9666;DHT22;4871;52.004;5.924;2024-03-08T02:55:00;3.5;88.4
9666;DHT22;4871;52.004;5.924;2024-03-08T02:56:00;3.5;88.4
9666;DHT22;4871;52.004;5.924;2024-03-08T02:57:00;3.6;88.4
9666;DHT22;4871;52.004;5.924;2024-03-08T02:58:00;3.6;88.6
9666;DHT22;4871;52.004;5.924;2024-03-08T02:59:00;3.6;88.4
9666;DHT22;4871;52.004;5.924;2024-03-08T03:00:00;3.6;88.3
9666;DHT22;4871;52.004;5.924;2024-03-08T03:01:00;3.6;88.3
9666;DHT22;4871;52.004;5.924;2024-03-08T03:02:00;3.5;88.3
9666;DHT22;4871;52.004;5.924;2024-03-08T03:03:03;3.5;88.8
9666;DHT22;4871;52.004;5.924;2024-03-08T03:04:00;3.5;88.5
9666;DHT22;4871;52.004;5.924;2024-03-08T03:05:05;3.5;88.6
9666;DHT22;4871;52.004;5.924;2024-03-08T03:06:01;3.5;88.2
9666;DHT22;4871;52.004;5.924;2024-03-08T03:07:01;3.5;88.2
9666;DHT22;4871;52.004;5.924;2024-03-08T03:08:00;3.5;88.6
9666;DHT22;4871;52.004;5.924;2024-03-08T03:09:00;3.5;88.4
9666;DHT22;4871;52.004;5.924;2024-03-08T03:10:00;3.5;88.4
9666;DHT22;4871;52.004;5.924;2024-03-08T03:11:00;3.5;88.4
9666;DHT22;4871;52.004;5.924;2024-03-08T03:12:00;3.5;88.4
9666;DHT22;4871;52.004;5.924;2024-03-08T03:13:00;3.4;88.1
9666;DHT22;4871;52.004;5.924;2024-03-08T03:14:00;3.5;88.5
9666;DHT22;4871;52.004;5.924;2024-03-08T03:15:00;3.5;88.3
9666;DHT22;4871;52.004;5.924;2024-03-08T03:16:00;3.4;88.3
9666;DHT22;4871;52.004;5.924;2024-03-08T03:17:00;3.4;88.5
9666;DHT22;4871;52.004;5.924;2024-03-08T03:18:00;3.4;88.1
9666;DHT22;4871;52.004;5.924;2024-03-08T03:19:01;3.4;88.4
9666;DHT22;4871;52.004;5.924;2024-03-08T03:20:09;3.4;88.4
9666;DHT22;4871;52.004;5.924;2024-03-08T03:21:07;3.4;88.3
9666;DHT22;4871;52.004;5.924;2024-03-08T03:22:01;3.4;88.4
9666;DHT22;4871;52.004;5.924;2024-03-08T03:23:03;3.4;88.0
9666;DHT22;4871;52.004;5.924;2024-03-08T03:24:01;3.4;88.5
9666;DHT22;4871;52.004;5.924;2024-03-08T03:25:00;3.4;88.2
9666;DHT22;4871;52.004;5.924;2024-03-08T03:26:02;3.4;88.5
9666;DHT22;4871;52.004;5.924;2024-03-08T03:27:00;3.4;87.8
9666;DHT22;4871;52.004;5.924;2024-03-08T03:28:00;3.3;88.3
9666;DHT22;4871;52.004;5.924;2024-03-08T03:29:02;3.3;88.2
9666;DHT22;4871;52.004;5.924;2024-03-08T03:31:01;3.3;88.3
9666;DHT22;4871;52.004;5.924;2024-03-08T03:32:00;3.3;88.2
9666;DHT22;4871;52.004;5.924;2024-03-08T03:33:01;3.3;88.2
9666;DHT22;4871;52.004;5.924;2024-03-08T03:34:03;3.4;88.5
9666;DHT22;4871;52.004;5.924;2024-03-08T03:35:05;3.3;88.3
9666;DHT22;4871;52.004;5.924;2024-03-08T03:36:01;3.3;88.3
9666;DHT22;4871;52.004;5.924;2024-03-08T03:37:01;3.3;88.0
9666;DHT22;4871;52.004;5.924;2024-03-08T03:38:05;3.3;88.2
9666;DHT22;4871;52.004;5.924;2024-03-08T03:39:10;3.3;88.0
9666;DHT22;4871;52.004;5.924;2024-03-08T03:40:01;3.3;88.3
9666;DHT22;4871;52.004;5.924;2024-03-08T03:41:09;3.3;88.2
9666;DHT22;4871;52.004;5.924;2024-03-08T03:42:02;3.3;88.1
9666;DHT22;4871;52.004;5.924;2024-03-08T03:43:01;3.3;88.1
9666;DHT22;4871;52.004;5.924;2024-03-08T03:44:00;3.2;88.0
9666;DHT22;4871;52.004;5.924;2024-03-08T03:45:00;3.2;88.4
9666;DHT22;4871;52.004;5.924;2024-03-08T03:46:00;3.2;88.3
9666;DHT22;4871;52.004;5.924;2024-03-08T03:47:00;3.2;88.3
9666;DHT22;4871;52.004;5.924;2024-03-08T03:48:01;3.2;88.3
9666;DHT22;4871;52.004;5.924;2024-03-08T03:49:01;3.2;88.3
9666;DHT22;4871;52.004;5.924;2024-03-08T03:50:02;3.2;88.5
9666;DHT22;4871;52.004;5.924;2024-03-08T03:51:00;3.2;88.2
9666;DHT22;4871;52.004;5.924;2024-03-08T03:52:00;3.2;88.4
9666;DHT22;4871;52.004;5.924;2024-03-08T03:53:00;3.2;88.2
9666;DHT22;4871;52.004;5.924;2024-03-08T03:54:00;3.2;88.3
9666;DHT22;4871;52.004;5.924;2024-03-08T03:55:00;3.2;88.4
9666;DHT22;4871;52.004;5.924;2024-03-08T03:56:00;3.2;88.2
9666;DHT22;4871;52.004;5.924;2024-03-08T03:57:00;3.2;88.3
9666;DHT22;4871;52.004;5.924;2024-03-08T03:58:01;3.1;88.0
9666;DHT22;4871;52.004;5.924;2024-03-08T03:59:00;3.2;88.4
9666;DHT22;4871;52.004;5.924;2024-03-08T04:00:03;3.1;88.4
9666;DHT22;4871;52.004;5.924;2024-03-08T04:01:00;3.2;88.3
9666;DHT22;4871;52.004;5.924;2024-03-08T04:02:00;3.1;88.4
9666;DHT22;4871;52.004;5.924;2024-03-08T04:03:01;3.1;87.9
9666;DHT22;4871;52.004;5.924;2024-03-08T04:04:00;3.1;88.6
9666;DHT22;4871;52.004;5.924;2024-03-08T04:05:00;3.1;88.5
9666;DHT22;4871;52.004;5.924;2024-03-08T04:06:02;3.1;88.4
9666;DHT22;4871;52.004;5.924;2024-03-08T04:07:02;3.1;88.3
9666;DHT22;4871;52.004;5.924;2024-03-08T04:08:00;3.1;88.2
9666;DHT22;4871;52.004;5.924;2024-03-08T04:09:00;3.1;88.3
9666;DHT22;4871;52.004;5.924;2024-03-08T04:10:01;3.1;88.3
9666;DHT22;4871;52.004;5.924;2024-03-08T04:11:00;3.1;88.3
9666;DHT22;4871;52.004;5.924;2024-03-08T04:12:01;3.1;88.3
9666;DHT22;4871;52.004;5.924;2024-03-08T04:13:00;3.1;88.1
9666;DHT22;4871;52.004;5.924;2024-03-08T04:14:00;3.1;88.4
9666;DHT22;4871;52.004;5.924;2024-03-08T04:15:00;3.1;88.3
9666;DHT22;4871;52.004;5.924;2024-03-08T04:16:00;3.1;88.3
9666;DHT22;4871;52.004;5.924;2024-03-08T04:17:00;3.1;88.3
9666;DHT22;4871;52.004;5.924;2024-03-08T04:18:00;3.1;88.2
9666;DHT22;4871;52.004;5.924;2024-03-08T04:19:04;3.1;88.3
9666;DHT22;4871;52.004;5.924;2024-03-08T04:20:01;3.1;88.3
9666;DHT22;4871;52.004;5.924;2024-03-08T04:21:02;3.0;88.1
9666;DHT22;4871;52.004;5.924;2024-03-08T04:22:01;3.0;88.3
9666;DHT22;4871;52.004;5.924;2024-03-08T04:23:00;3.0;88.1
9666;DHT22;4871;52.004;5.924;2024-03-08T04:24:01;3.0;88.4
9666;DHT22;4871;52.004;5.924;2024-03-08T04:25:00;3.0;88.5
9666;DHT22;4871;52.004;5.924;2024-03-08T04:26:00;3.0;88.2
9666;DHT22;4871;52.004;5.924;2024-03-08T04:27:00;3.0;88.5
9666;DHT22;4871;52.004;5.924;2024-03-08T04:28:00;3.0;88.1
9666;DHT22;4871;52.004;5.924;2024-03-08T04:29:01;3.0;88.2
9666;DHT22;4871;52.004;5.924;2024-03-08T04:30:00;3.0;88.2
9666;DHT22;4871;52.004;5.924;2024-03-08T04:31:00;3.0;88.2
9666;DHT22;4871;52.004;5.924;2024-03-08T04:32:03;3.0;88.3
9666;DHT22;4871;52.004;5.924;2024-03-08T04:33:01;3.0;88.2
9666;DHT22;4871;52.004;5.924;2024-03-08T04:34:00;3.0;88.5
9666;DHT22;4871;52.004;5.924;2024-03-08T04:35:01;3.0;88.4
9666;DHT22;4871;52.004;5.924;2024-03-08T04:36:00;3.0;88.3
9666;DHT22;4871;52.004;5.924;2024-03-08T04:37:00;2.9;88.4
9666;DHT22;4871;52.004;5.924;2024-03-08T04:38:00;2.9;88.1
9666;DHT22;4871;52.004;5.924;2024-03-08T04:39:00;2.9;88.6
9666;DHT22;4871;52.004;5.924;2024-03-08T04:40:00;2.9;88.4
9666;DHT22;4871;52.004;5.924;2024-03-08T04:41:02;2.9;88.3
9666;DHT22;4871;52.004;5.924;2024-03-08T04:42:02;2.9;88.1
9666;DHT22;4871;52.004;5.924;2024-03-08T04:43:00;2.9;88.2
9666;DHT22;4871;52.004;5.924;2024-03-08T04:44:00;2.9;88.4
9666;DHT22;4871;52.004;5.924;2024-03-08T04:45:00;2.9;88.1
9666;DHT22;4871;52.004;5.924;2024-03-08T04:46:00;2.9;88.3
9666;DHT22;4871;52.004;5.924;2024-03-08T04:47:00;2.9;88.1
9666;DHT22;4871;52.004;5.924;2024-03-08T04:48:00;2.9;88.2
9666;DHT22;4871;52.004;5.924;2024-03-08T04:49:00;2.9;88.2
9666;DHT22;4871;52.004;5.924;2024-03-08T04:50:00;2.9;88.3
9666;DHT22;4871;52.004;5.924;2024-03-08T04:51:01;2.9;88.4
9666;DHT22;4871;52.004;5.924;2024-03-08T04:52:03;2.9;88.4
9666;DHT22;4871;52.004;5.924;2024-03-08T04:53:00;2.8;88.0
9666;DHT22;4871;52.004;5.924;2024-03-08T04:54:00;2.9;88.4
9666;DHT22;4871;52.004;5.924;2024-03-08T04:55:00;2.8;88.1
9666;DHT22;4871;52.004;5.924;2024-03-08T04:56:06;2.8;88.5
9666;DHT22;4871;52.004;5.924;2024-03-08T04:57:01;2.8;88.3
9666;DHT22;4871;52.004;5.924;2024-03-08T04:58:00;2.8;88.5
9666;DHT22;4871;52.004;5.924;2024-03-08T04:59:00;2.9;88.3
9666;DHT22;4871;52.004;5.924;2024-03-08T05:00:00;2.9;88.2
9666;DHT22;4871;52.004;5.924;2024-03-08T05:01:00;2.8;88.2
9666;DHT22;4871;52.004;5.924;2024-03-08T05:02:00;2.8;88.4
9666;DHT22;4871;52.004;5.924;2024-03-08T05:03:00;2.8;88.4
9666;DHT22;4871;52.004;5.924;2024-03-08T05:04:00;2.8;88.3
9666;DHT22;4871;52.004;5.924;2024-03-08T05:05:00;2.8;88.3
9666;DHT22;4871;52.004;5.924;2024-03-08T05:06:00;2.8;88.2
9666;DHT22;4871;52.004;5.924;2024-03-08T05:07:01;2.9;88.2
9666;DHT22;4871;52.004;5.924;2024-03-08T05:08:01;2.8;88.2
9666;DHT22;4871;52.004;5.924;2024-03-08T05:09:00;2.8;88.2
9666;DHT22;4871;52.004;5.924;2024-03-08T05:10:00;2.8;88.3
9666;DHT22;4871;52.004;5.924;2024-03-08T05:11:03;2.8;88.1
9666;DHT22;4871;52.004;5.924;2024-03-08T05:12:01;2.8;88.1
9666;DHT22;4871;52.004;5.924;2024-03-08T05:13:00;2.8;88.4
9666;DHT22;4871;52.004;5.924;2024-03-08T05:14:00;2.8;88.4
9666;DHT22;4871;52.004;5.924;2024-03-08T05:15:00;2.8;88.2
9666;DHT22;4871;52.004;5.924;2024-03-08T05:16:00;2.8;88.1
9666;DHT22;4871;52.004;5.924;2024-03-08T05:17:00;2.8;88.1
9666;DHT22;4871;52.004;5.924;2024-03-08T05:18:00;2.8;88.3
9666;DHT22;4871;52.004;5.924;2024-03-08T05:19:00;2.8;87.8
9666;DHT22;4871;52.004;5.924;2024-03-08T05:20:00;2.7;87.8
9666;DHT22;4871;52.004;5.924;2024-03-08T05:21:04;2.7;88.3
9666;DHT22;4871;52.004;5.924;2024-03-08T05:22:00;2.8;88.0
9666;DHT22;4871;52.004;5.924;2024-03-08T05:23:00;2.8;88.2
9666;DHT22;4871;52.004;5.924;2024-03-08T05:24:00;2.7;88.2
9666;DHT22;4871;52.004;5.924;2024-03-08T05:25:00;2.8;88.2
9666;DHT22;4871;52.004;5.924;2024-03-08T05:26:01;2.8;88.0
9666;DHT22;4871;52.004;5.924;2024-03-08T05:27:00;2.8;87.9
9666;DHT22;4871;52.004;5.924;2024-03-08T05:28:00;2.7;88.3
9666;DHT22;4871;52.004;5.924;2024-03-08T05:29:00;2.8;88.1
9666;DHT22;4871;52.004;5.924;2024-03-08T05:30:00;2.7;88.1
9666;DHT22;4871;52.004;5.924;2024-03-08T05:31:01;2.7;88.2
9666;DHT22;4871;52.004;5.924;2024-03-08T05:32:01;2.8;88.1
9666;DHT22;4871;52.004;5.924;2024-03-08T05:33:00;2.8;88.1
9666;DHT22;4871;52.004;5.924;2024-03-08T05:34:00;2.7;88.0
9666;DHT22;4871;52.004;5.924;2024-03-08T05:35:00;2.7;88.1
9666;DHT22;4871;52.004;5.924;2024-03-08T05:36:02;2.7;87.9
9666;DHT22;4871;52.004;5.924;2024-03-08T05:37:01;2.7;88.1
9666;DHT22;4871;52.004;5.924;2024-03-08T05:38:02;2.7;88.3
9666;DHT22;4871;52.004;5.924;2024-03-08T05:39:00;2.7;88.0
9666;DHT22;4871;52.004;5.924;2024-03-08T05:40:00;2.7;88.2
9666;DHT22;4871;52.004;5.924;2024-03-08T05:41:01;2.7;88.1
9666;DHT22;4871;52.004;5.924;2024-03-08T05:42:00;2.7;88.4
9666;DHT22;4871;52.004;5.924;2024-03-08T05:43:01;2.7;88.1
9666;DHT22;4871;52.004;5.924;2024-03-08T05:44:00;2.7;88.2
9666;DHT22;4871;52.004;5.924;2024-03-08T05:45:00;2.6;88.2
9666;DHT22;4871;52.004;5.924;2024-03-08T05:46:00;2.6;88.2
9666;DHT22;4871;52.004;5.924;2024-03-08T05:47:00;2.6;88.5
9666;DHT22;4871;52.004;5.924;2024-03-08T05:48:01;2.6;88.2
9666;DHT22;4871;52.004;5.924;2024-03-08T05:49:00;2.6;88.2
9666;DHT22;4871;52.004;5.924;2024-03-08T05:50:00;2.7;88.2
9666;DHT22;4871;52.004;5.924;2024-03-08T05:51:01;2.7;88.1
9666;DHT22;4871;52.004;5.924;2024-03-08T05:52:00;2.7;88.2
9666;DHT22;4871;52.004;5.924;2024-03-08T05:53:00;2.7;88.2
9666;DHT22;4871;52.004;5.924;2024-03-08T05:54:01;2.7;87.8
9666;DHT22;4871;52.004;5.924;2024-03-08T05:55:00;2.6;88.2
9666;DHT22;4871;52.004;5.924;2024-03-08T05:56:02;2.6;88.2
9666;DHT22;4871;52.004;5.924;2024-03-08T05:57:00;2.6;87.9
9666;DHT22;4871;52.004;5.924;2024-03-08T05:58:01;2.6;88.2
9666;DHT22;4871;52.004;5.924;2024-03-08T05:59:00;2.7;88.0
9666;DHT22;4871;52.004;5.924;2024-03-08T06:00:00;2.6;88.0
9666;DHT22;4871;52.004;5.924;2024-03-08T06:01:00;2.6;88.2
9666;DHT22;4871;52.004;5.924;2024-03-08T06:02:00;2.6;88.1
9666;DHT22;4871;52.004;5.924;2024-03-08T06:03:00;2.6;88.0
9666;DHT22;4871;52.004;5.924;2024-03-08T06:04:01;2.6;88.1
9666;DHT22;4871;52.004;5.924;2024-03-08T06:05:02;2.6;88.1
9666;DHT22;4871;52.004;5.924;2024-03-08T06:06:00;2.6;88.0
9666;DHT22;4871;52.004;5.924;2024-03-08T06:07:01;2.6;88.2
9666;DHT22;4871;52.004;5.924;2024-03-08T06:08:00;2.6;88.1
9666;DHT22;4871;52.004;5.924;2024-03-08T06:09:01;2.6;87.9
9666;DHT22;4871;52.004;5.924;2024-03-08T06:10:00;2.6;88.2
9666;DHT22;4871;52.004;5.924;2024-03-08T06:11:02;2.6;88.1
9666;DHT22;4871;52.004;5.924;2024-03-08T06:12:01;2.6;88.2
9666;DHT22;4871;52.004;5.924;2024-03-08T06:13:01;2.6;88.2
9666;DHT22;4871;52.004;5.924;2024-03-08T06:14:00;2.6;88.1
9666;DHT22;4871;52.004;5.924;2024-03-08T06:15:00;2.6;88.3
9666;DHT22;4871;52.004;5.924;2024-03-08T06:16:01;2.5;88.3
9666;DHT22;4871;52.004;5.924;2024-03-08T06:17:00;2.5;88.3
9666;DHT22;4871;52.004;5.924;2024-03-08T06:18:00;2.5;88.3
9666;DHT22;4871;52.004;5.924;2024-03-08T06:19:02;2.6;88.2
9666;DHT22;4871;52.004;5.924;2024-03-08T06:20:00;2.6;88.0
9666;DHT22;4871;52.004;5.924;2024-03-08T06:21:00;2.5;87.9
9666;DHT22;4871;52.004;5.924;2024-03-08T06:22:03;2.5;88.2
9666;DHT22;4871;52.004;5.924;2024-03-08T06:23:01;2.5;88.2
9666;DHT22;4871;52.004;5.924;2024-03-08T06:24:00;2.6;88.2
9666;DHT22;4871;52.004;5.924;2024-03-08T06:25:01;2.6;88.1
9666;DHT22;4871;52.004;5.924;2024-03-08T06:26:00;2.6;88.1
9666;DHT22;4871;52.004;5.924;2024-03-08T06:27:00;2.5;88.1
9666;DHT22;4871;52.004;5.924;2024-03-08T06:28:00;2.5;88.0
9666;DHT22;4871;52.004;5.924;2024-03-08T06:29:00;2.5;88.1
9666;DHT22;4871;52.004;5.924;2024-03-08T06:30:01;2.5;88.1
9666;DHT22;4871;52.004;5.924;2024-03-08T06:31:00;2.5;88.1
9666;DHT22;4871;52.004;5.924;2024-03-08T06:32:00;2.5;87.8
9666;DHT22;4871;52.004;5.924;2024-03-08T06:33:00;2.5;88.2
9666;DHT22;4871;52.004;5.924;2024-03-08T06:34:00;2.6;88.0
9666;DHT22;4871;52.004;5.924;2024-03-08T06:35:01;2.6;88.1
9666;DHT22;4871;52.004;5.924;2024-03-08T06:36:00;2.6;88.0
9666;DHT22;4871;52.004;5.924;2024-03-08T06:37:01;2.5;88.1
9666;DHT22;4871;52.004;5.924;2024-03-08T06:38:00;2.5;88.0
9666;DHT22;4871;52.004;5.924;2024-03-08T06:39:00;2.5;88.3
9666;DHT22;4871;52.004;5.924;2024-03-08T06:40:01;2.5;88.2
9666;DHT22;4871;52.004;5.924;2024-03-08T06:41:03;2.5;88.1
9666;DHT22;4871;52.004;5.924;2024-03-08T06:42:00;2.5;88.3
9666;DHT22;4871;52.004;5.924;2024-03-08T06:43:00;2.5;88.1
9666;DHT22;4871;52.004;5.924;2024-03-08T06:44:00;2.5;88.1
9666;DHT22;4871;52.004;5.924;2024-03-08T06:45:04;2.6;88.1
9666;DHT22;4871;52.004;5.924;2024-03-08T06:46:00;2.6;88.0
9666;DHT22;4871;52.004;5.924;2024-03-08T06:47:00;2.5;87.9
9666;DHT22;4871;52.004;5.924;2024-03-08T06:48:00;2.6;88.0
9666;DHT22;4871;52.004;5.924;2024-03-08T06:49:00;2.6;87.9
9666;DHT22;4871;52.004;5.924;2024-03-08T06:50:00;2.6;87.8
9666;DHT22;4871;52.004;5.924;2024-03-08T06:51:00;2.6;88.2
9666;DHT22;4871;52.004;5.924;2024-03-08T06:52:00;2.7;87.8